Time;durP1;ratioP1;P1;durP2;ratioP2;P2;SDS_P1;SDS_P2;PMS_P1;PMS_P2;Temp;Humidity;BMP_temperature;BMP_pressure;BME280_temperature;BME280_humidity;BME280_pressure;Samples;Min_cycle;Max_cycle;Signal;HPM_P1;HPM_P2
2022/09/24 00:01:31;;;;;;;27.50;25.30;;;;;;;9.59;100.00;101267.63;5033761;28;20452;-44
2022/09/24 00:04:01;;;;;;;27.50;25.50;;;;;;;9.63;100.00;101276.91;5033145;28;20491;-41
2022/09/24 00:06:33;;;;;;;27.70;25.73;;;;;;;9.64;100.00;101270.59;5033754;28;20436;-41
2022/09/24 00:09:01;;;;;;;30.90;28.40;;;;;;;9.64;100.00;101264.44;5033785;28;20432;-41
2022/09/24 00:11:31;;;;;;;30.43;27.97;;;;;;;9.63;100.00;101271.59;5033808;28;20799;-42
2022/09/24 00:13:59;;;;;;;28.30;26.00;;;;;;;9.64;100.00;101264.44;5033248;28;20463;-41
2022/09/24 00:16:30;;;;;;;31.10;28.70;;;;;;;9.64;100.00;101261.78;5033708;28;20439;-41
2022/09/24 00:18:58;;;;;;;31.93;29.30;;;;;;;9.63;100.00;101268.09;5027086;28;20506;-41
2022/09/24 00:21:28;;;;;;;30.00;27.60;;;;;;;9.61;100.00;101259.47;5028467;28;20424;-40
2022/09/24 00:23:57;;;;;;;31.47;28.73;;;;;;;9.60;100.00;101258.63;5032979;28;20468;-41
2022/09/24 00:29:15;;;;;;;30.73;28.37;;;;;;;9.57;100.00;101259.00;5033629;28;20440;-41
2022/09/24 00:31:43;;;;;;;30.20;27.50;;;;;;;9.58;100.00;101254.50;5033441;28;20457;-41
2022/09/24 00:34:10;;;;;;;29.47;27.17;;;;;;;9.56;100.00;101253.84;5032673;28;20460;-42
2022/09/24 00:36:38;;;;;;;27.53;25.57;;;;;;;9.53;100.00;101251.53;5033390;28;20478;-40
2022/09/24 00:39:06;;;;;;;31.53;28.93;;;;;;;9.54;100.00;101258.50;5033361;28;20561;-42
2022/09/24 00:41:37;;;;;;;32.53;29.93;;;;;;;9.52;100.00;101257.88;5032868;28;20457;-41
2022/09/24 00:44:53;;;;;;;26.20;24.37;;;;;;;9.51;100.00;101249.03;5032657;28;20533;-42
2022/09/24 00:47:29;;;;;;;31.47;28.73;;;;;;;9.50;100.00;101249.25;4972167;28;20430;-42
2022/09/24 00:50:05;;;;;;;28.03;25.80;;;;;;;9.50;100.00;101251.91;4971974;28;20501;-43
2022/09/24 00:52:33;;;;;;;29.90;27.57;;;;;;;9.51;100.00;101253.53;5005753;28;20456;-41
2022/09/24 00:55:01;;;;;;;35.83;32.33;;;;;;;9.52;100.00;101247.22;5032467;28;20888;-42
2022/09/24 00:57:29;;;;;;;32.33;29.80;;;;;;;9.51;100.00;101248.22;5032734;28;20490;-41
2022/09/24 00:59:56;;;;;;;33.33;30.63;;;;;;;9.50;100.00;101250.03;5030869;28;20440;-41
2022/09/24 01:02:25;;;;;;;32.40;29.80;;;;;;;9.50;100.00;101255.38;5004560;28;20526;-46
2022/09/24 01:04:54;;;;;;;35.13;32.33;;;;;;;9.51;100.00;101245.56;5009581;28;20456;-42
2022/09/24 01:07:24;;;;;;;34.73;32.13;;;;;;;9.53;100.00;101240.91;5011836;28;20930;-40
2022/09/24 01:09:52;;;;;;;35.90;32.87;;;;;;;9.54;100.00;101247.84;5012939;28;20433;-41
2022/09/24 01:12:27;;;;;;;34.93;32.03;;;;;;;9.55;100.00;101247.69;5012503;28;20580;-40
2022/09/24 01:15:06;;;;;;;33.20;30.60;;;;;;;9.53;100.00;101240.91;5012223;28;20908;-41
2022/09/24 01:17:43;;;;;;;30.33;28.10;;;;;;;9.54;100.00;101238.03;5051635;22;20492;-49
2022/09/24 01:20:46;;;;;;;32.40;29.90;;;;;;;9.56;100.00;101236.03;5026141;28;20482;-50
2022/09/24 01:23:44;;;;;;;35.20;32.37;;;;;;;9.59;100.00;101240.19;5047331;28;20485;-49
2022/09/24 01:26:34;;;;;;;34.27;31.47;;;;;;;9.61;100.00;101232.84;5042855;28;20549;-48
2022/09/24 01:29:30;;;;;;;33.17;30.73;;;;;;;9.62;100.00;101229.16;5052265;28;20462;-47
2022/09/24 01:32:04;;;;;;;31.70;29.40;;;;;;;9.62;100.00;101222.00;5052280;28;20462;-47
2022/09/24 01:34:39;;;;;;;33.70;31.10;;;;;;;9.65;100.00;101221.63;5051680;28;20836;-47
2022/09/24 01:37:08;;;;;;;31.80;29.60;;;;;;;9.66;100.00;101219.81;5051960;28;20481;-45
2022/09/24 01:39:38;;;;;;;33.07;30.63;;;;;;;9.66;100.00;101212.66;5051899;28;20497;-48
2022/09/24 01:42:06;;;;;;;37.40;34.30;;;;;;;9.68;100.00;101217.78;5051942;28;20592;-48
2022/09/24 01:44:36;;;;;;;36.47;33.63;;;;;;;9.70;100.00;101215.78;5040798;28;20542;-49
2022/09/24 01:47:07;;;;;;;41.03;37.50;;;;;;;9.69;100.00;101209.63;5043613;28;20508;-46
2022/09/24 01:49:35;;;;;;;38.00;35.10;;;;;;;9.70;100.00;101213.13;5051843;28;20482;-48
2022/09/24 01:52:09;;;;;;;33.37;30.67;;;;;;;9.72;100.00;101211.94;5051542;28;20508;-46
2022/09/24 01:54:42;;;;;;;36.07;32.87;;;;;;;9.73;100.00;101210.94;5051591;28;20516;-44
2022/09/24 01:57:13;;;;;;;35.80;33.30;;;;;;;9.76;100.00;101212.41;5051642;28;20497;-48
2022/09/24 01:59:48;;;;;;;35.27;32.50;;;;;;;9.74;100.00;101211.75;5051694;28;20475;-47
2022/09/24 02:02:26;;;;;;;36.20;33.50;;;;;;;9.76;100.00;101212.41;5051577;28;20826;-45
2022/09/24 02:05:02;;;;;;;33.37;30.90;;;;;;;9.75;100.00;101206.25;5050993;28;21064;-50
2022/09/24 02:07:34;;;;;;;35.80;32.50;;;;;;;9.76;100.00;101207.91;5051707;28;20451;-45
2022/09/24 02:10:02;;;;;;;35.77;32.80;;;;;;;9.77;100.00;101208.72;5051955;28;20431;-46
2022/09/24 02:12:41;;;;;;;37.47;34.40;;;;;;;9.78;100.00;101213.03;5051472;28;20481;-44
2022/09/24 02:15:16;;;;;;;38.20;35.10;;;;;;;9.77;100.00;101206.88;5051169;28;20439;-46
2022/09/24 02:17:47;;;;;;;38.17;35.20;;;;;;;9.77;100.00;101212.22;5054260;28;20462;-49
2022/09/24 02:20:19;;;;;;;34.13;31.50;;;;;;;9.78;100.00;101210.38;5043120;28;20481;-46
2022/09/24 02:22:49;;;;;;;36.77;34.03;;;;;;;9.77;100.00;101200.72;5039263;28;20485;-45
2022/09/24 02:25:22;;;;;;;38.17;35.07;;;;;;;9.77;100.00;101201.56;5055503;28;20924;-47
2022/09/24 02:27:50;;;;;;;37.50;34.70;;;;;;;9.77;100.00;101203.38;5055295;28;20524;-47
2022/09/24 02:30:19;;;;;;;35.00;32.00;;;;;;;9.79;100.00;101198.72;5055642;28;20435;-46
2022/09/24 02:32:47;;;;;;;34.23;31.70;;;;;;;9.81;100.00;101204.69;5054956;28;20844;-48
2022/09/24 02:35:14;;;;;;;39.10;35.80;;;;;;;9.81;100.00;101197.53;5055320;28;21002;-47
2022/09/24 02:37:43;;;;;;;39.00;36.00;;;;;;;9.84;100.00;101199.00;5055375;28;20451;-45
2022/09/24 02:40:14;;;;;;;40.57;37.40;;;;;;;9.85;100.00;101195.34;5055024;28;20517;-45
2022/09/24 02:42:43;;;;;;;37.13;34.23;;;;;;;9.88;100.00;101203.81;5055202;28;20431;-46
2022/09/24 02:45:13;;;;;;;36.87;33.90;;;;;;;9.91;100.00;101202.63;5055173;28;20897;-45
2022/09/24 02:47:41;;;;;;;36.63;33.93;;;;;;;9.94;100.00;101195.09;5055475;28;20443;-48
2022/09/24 02:50:09;;;;;;;37.00;34.10;;;;;;;9.96;100.00;101197.56;5055172;28;20916;-48
2022/09/24 02:52:37;;;;;;;33.87;31.37;;;;;;;9.98;100.00;101188.38;5054702;28;20435;-48
2022/09/24 02:55:05;;;;;;;37.60;34.70;;;;;;;10.01;100.00;101192.50;5054781;28;20536;-48
2022/09/24 02:57:33;;;;;;;41.50;38.17;;;;;;;10.02;100.00;101187.00;5054930;28;21030;-45
2022/09/24 03:00:01;;;;;;;41.47;38.17;;;;;;;10.04;100.00;101189.47;5054979;28;20529;-48
2022/09/24 03:02:29;;;;;;;39.10;36.10;;;;;;;10.06;100.00;101184.00;5054775;28;20465;-45
2022/09/24 03:04:58;;;;;;;41.67;38.40;;;;;;;10.07;100.00;101181.13;5054382;28;21047;-46
2022/09/24 03:07:25;;;;;;;40.43;37.30;;;;;;;10.07;100.00;101185.63;5054884;28;21093;-49
2022/09/24 03:09:53;;;;;;;39.03;36.00;;;;;;;10.07;100.00;101183.78;5055092;28;20427;-45
2022/09/24 03:12:20;;;;;;;40.43;37.23;;;;;;;10.08;100.00;101192.63;5054687;28;20439;-45
2022/09/24 03:14:48;;;;;;;39.23;35.90;;;;;;;10.10;100.00;101193.25;5054297;28;20467;-45
2022/09/24 03:17:15;;;;;;;38.17;35.17;;;;;;;10.12;100.00;101200.06;5054521;28;20471;-45
2022/09/24 03:19:43;;;;;;;40.93;37.97;;;;;;;10.13;100.00;101191.09;5041871;28;20471;-45
2022/09/24 03:22:12;;;;;;;37.17;34.33;;;;;;;10.14;100.00;101190.09;5046335;28;20428;-45
2022/09/24 03:24:39;;;;;;;35.10;32.70;;;;;;;10.16;100.00;101196.06;5054171;28;20878;-47
2022/09/24 03:27:07;;;;;;;40.30;36.97;;;;;;;10.17;100.00;101197.72;5054517;28;20451;-48
2022/09/24 03:32:19;;;;;;;40.70;37.53;;;;;;;10.20;100.00;101191.19;5023421;28;20427;-46
2022/09/24 03:34:46;;;;;;;40.03;36.90;;;;;;;10.22;100.00;101194.50;5053719;28;20521;-45
2022/09/24 03:37:15;;;;;;;41.37;38.03;;;;;;;10.21;100.00;101193.69;5054345;28;20600;-45
2022/09/24 03:39:43;;;;;;;42.70;38.93;;;;;;;10.22;100.00;101184.66;5054326;28;20474;-45
2022/09/24 03:42:11;;;;;;;38.20;35.20;;;;;;;10.24;100.00;101184.50;5053975;28;20439;-48
2022/09/24 03:44:38;;;;;;;40.13;37.13;;;;;;;10.25;100.00;101196.78;5053808;28;20509;-50
2022/09/24 03:47:06;;;;;;;41.57;38.17;;;;;;;10.24;100.00;101185.31;5054188;28;20459;-46
2022/09/24 03:49:33;;;;;;;44.23;40.47;;;;;;;10.24;100.00;101182.66;5054222;28;20427;-45
2022/09/24 03:52:01;;;;;;;44.70;41.07;;;;;;;10.24;100.00;101184.50;5053931;28;21013;-45
2022/09/24 03:54:30;;;;;;;44.07;40.53;;;;;;;10.23;100.00;101181.00;5053516;28;20467;-46
2022/09/24 03:56:58;;;;;;;44.43;41.03;;;;;;;10.26;100.00;101174.47;5053793;28;20863;-45
2022/09/24 03:59:25;;;;;;;42.37;38.80;;;;;;;10.27;100.00;101184.97;5053599;28;20521;-47
2022/09/24 04:01:53;;;;;;;42.20;38.60;;;;;;;10.27;100.00;101170.78;5053928;28;20431;-45
2022/09/24 04:04:20;;;;;;;44.00;40.27;;;;;;;10.28;100.00;101167.09;5053138;28;20550;-48
2022/09/24 04:06:48;;;;;;;46.00;42.20;;;;;;;10.28;100.00;101169.75;5053682;28;20536;-46
2022/09/24 04:09:16;;;;;;;42.97;39.47;;;;;;;10.29;100.00;101168.75;5053783;28;20561;-45
2022/09/24 04:11:45;;;;;;;50.43;46.13;;;;;;;10.30;100.00;101167.75;5053757;28;20773;-48
2022/09/24 04:14:12;;;;;;;46.63;42.57;;;;;;;10.31;100.00;101170.22;5052933;28;20517;-47
2022/09/24 04:16:40;;;;;;;45.57;41.90;;;;;;;10.32;100.00;101171.06;5053518;28;20462;-46
2022/09/24 04:19:07;;;;;;;48.80;44.60;;;;;;;10.32;100.00;101179.88;5044279;28;20440;-46
2022/09/24 04:21:35;;;;;;;43.77;40.43;;;;;;;10.34;100.00;101166.38;5042482;28;20521;-47
2022/09/24 04:24:02;;;;;;;51.33;46.93;;;;;;;10.33;100.00;101168.22;5052846;28;21007;-45
2022/09/24 04:26:30;;;;;;;46.80;43.13;;;;;;;10.33;100.00;101172.72;5053432;28;20508;-46
2022/09/24 04:28:59;;;;;;;41.93;38.83;;;;;;;10.34;100.00;101164.53;5053453;28;20481;-52
2022/09/24 04:31:27;;;;;;;45.03;41.43;;;;;;;10.35;100.00;101163.53;5053440;28;20427;-50
2022/09/24 04:33:55;;;;;;;44.77;41.27;;;;;;;10.36;100.00;101162.50;5052649;28;20520;-48
2022/09/24 04:36:22;;;;;;;43.20;39.80;;;;;;;10.36;100.00;101161.69;5053065;28;20493;-48
2022/09/24 04:38:50;;;;;;;42.90;39.60;;;;;;;10.38;100.00;101170.31;5052944;28;20473;-49
2022/09/24 04:41:17;;;;;;;44.43;40.97;;;;;;;10.40;100.00;101170.97;5052705;28;20475;-46
2022/09/24 04:43:46;;;;;;;44.10;40.50;;;;;;;10.42;100.00;101169.75;5052519;28;20455;-45
2022/09/24 04:46:15;;;;;;;45.47;41.90;;;;;;;10.44;100.00;101166.91;5052984;28;20455;-45
2022/09/24 04:48:42;;;;;;;46.27;42.27;;;;;;;10.45;100.00;101166.72;5053125;28;20797;-45
2022/09/24 04:51:10;;;;;;;51.67;47.33;;;;;;;10.47;100.00;101163.88;5052925;28;20952;-49
2022/09/24 04:53:37;;;;;;;45.57;42.00;;;;;;;10.47;100.00;101161.22;5052455;28;20513;-45
2022/09/24 04:56:10;;;;;;;51.60;47.17;;;;;;;10.48;100.00;101168.22;5052896;28;20859;-45
2022/09/24 04:58:38;;;;;;;49.87;45.60;;;;;;;10.48;100.00;101168.22;5052856;28;20438;-48
2022/09/24 05:01:06;;;;;;;51.67;46.97;;;;;;;10.47;100.00;101166.56;5052716;28;20529;-45
2022/09/24 05:03:35;;;;;;;49.50;45.27;;;;;;;10.46;100.00;101164.88;5051951;28;20466;-45
2022/09/24 05:06:03;;;;;;;48.83;45.17;;;;;;;10.45;100.00;101174.72;5052295;28;20968;-45
2022/09/24 05:08:30;;;;;;;50.40;46.17;;;;;;;10.45;100.00;101176.59;5052774;28;20496;-47
2022/09/24 05:10:58;;;;;;;50.77;46.23;;;;;;;10.46;100.00;101175.56;5052626;28;20431;-45
2022/09/24 05:13:26;;;;;;;49.60;45.30;;;;;;;10.46;100.00;101176.38;5051796;28;20463;-45
2022/09/24 05:15:54;;;;;;;48.63;44.73;;;;;;;10.46;100.00;101183.56;5052134;28;20435;-45
2022/09/24 05:18:21;;;;;;;47.20;43.50;;;;;;;10.47;100.00;101179.88;5052281;28;20435;-46
2022/09/24 05:20:51;;;;;;;48.57;44.37;;;;;;;10.48;100.00;101181.56;5035730;28;20560;-45
2022/09/24 05:23:18;;;;;;;48.27;44.27;;;;;;;10.49;100.00;101183.19;5047935;28;20458;-45
2022/09/24 05:28:32;;;;;;;45.90;42.37;;;;;;;10.52;100.00;101172.97;5052192;28;20439;-47
2022/09/24 05:31:00;;;;;;;48.33;44.20;;;;;;;10.55;100.00;101185.94;5051924;28;20434;-46
2022/09/24 05:33:28;;;;;;;44.80;41.10;;;;;;;10.61;100.00;101186.19;5051393;28;20976;-45
2022/09/24 05:35:58;;;;;;;49.67;45.03;;;;;;;10.64;100.00;101186.66;5052289;28;20451;-46
2022/09/24 05:38:25;;;;;;;49.90;45.50;;;;;;;10.67;100.00;101183.63;5052155;28;20439;-48
2022/09/24 05:40:53;;;;;;;46.23;42.33;;;;;;;10.70;100.00;101188.59;5053711;28;20525;-52
2022/09/24 05:43:21;;;;;;;47.90;44.20;;;;;;;10.73;100.00;101182.03;5051720;28;20467;-51
2022/09/24 05:45:49;;;;;;;49.83;45.63;;;;;;;10.75;100.00;101186.19;5052003;28;20482;-49
2022/09/24 05:48:17;;;;;;;51.93;47.10;;;;;;;10.78;100.00;101185.00;5052126;28;20439;-49
2022/09/24 05:50:44;;;;;;;46.67;42.87;;;;;;;10.80;100.00;101188.28;5051346;28;20990;-49
2022/09/24 05:53:13;;;;;;;56.97;52.03;;;;;;;10.84;100.00;101190.38;5050980;28;20489;-54
2022/09/24 05:55:42;;;;;;;52.67;47.93;;;;;;;10.88;100.00;101186.34;5051757;28;20435;-51
2022/09/24 05:58:11;;;;;;;49.03;44.93;;;;;;;10.94;100.00;101182.09;5051624;28;20852;-50
2022/09/24 06:00:39;;;;;;;57.83;52.50;;;;;;;10.95;100.00;101181.91;5051612;28;20991;-49
2022/09/24 06:03:10;;;;;;;53.47;48.77;;;;;;;11.00;100.00;101184.84;5051352;28;20879;-51
2022/09/24 06:05:38;;;;;;;52.60;47.73;;;;;;;11.07;100.00;101191.09;5051578;28;20855;-52
2022/09/24 06:08:06;;;;;;;49.17;44.77;;;;;;;11.14;100.00;101198.34;5051561;28;20481;-47
2022/09/24 06:10:37;;;;;;;51.20;47.30;;;;;;;11.20;100.00;101194.91;5051462;28;20435;-50
2022/09/24 06:13:05;;;;;;;50.20;46.30;;;;;;;11.28;100.00;101200.13;5051386;28;20455;-49
2022/09/24 06:15:33;;;;;;;50.03;45.63;;;;;;;11.34;100.00;101196.69;5051490;28;20782;-50
2022/09/24 06:18:01;;;;;;;51.77;47.37;;;;;;;11.39;100.00;101199.63;5050588;28;20501;-49
2022/09/24 06:20:29;;;;;;;52.33;47.90;;;;;;;11.44;100.00;101200.69;5037530;28;20431;-51
2022/09/24 06:22:57;;;;;;;53.33;48.63;;;;;;;11.50;100.00;101199.09;5044172;28;20493;-50
2022/09/24 06:25:25;;;;;;;54.97;49.87;;;;;;;11.57;100.00;101198.16;5051476;28;20439;-50
2022/09/24 06:27:59;;;;;;;52.00;47.80;;;;;;;11.66;100.00;101202.34;5051473;28;20455;-49
2022/09/24 06:30:28;;;;;;;55.20;50.73;;;;;;;11.76;100.00;101203.91;5051544;28;20791;-49
2022/09/24 06:33:01;;;;;;;51.77;47.50;;;;;;;11.88;100.00;101216.53;5050455;28;20431;-46
2022/09/24 06:35:29;;;;;;;49.63;45.67;;;;;;;12.00;100.00;101204.31;5050190;28;20501;-46
2022/09/24 06:37:57;;;;;;;51.57;47.37;;;;;;;12.10;100.00;101207.44;5051438;28;20471;-46
2022/09/24 06:40:25;;;;;;;51.13;46.83;;;;;;;12.23;100.00;101206.72;5051353;28;20431;-53
2022/09/24 06:42:53;;;;;;;51.37;46.97;;;;;;;12.36;100.00;101204.13;5050570;28;20928;-52
2022/09/24 06:45:22;;;;;;;49.20;45.10;;;;;;;12.50;100.00;101213.88;5051417;28;20436;-49
2022/09/24 06:47:54;;;;;;;47.57;43.97;;;;;;;12.65;100.00;101214.56;5026427;28;20965;-51
2022/09/24 06:50:22;;;;;;;44.10;40.60;;;;;;;12.77;100.00;101217.50;5030550;28;20493;-52
2022/09/24 06:52:50;;;;;;;49.83;45.93;;;;;;;12.87;100.00;101217.97;5030349;28;20929;-51
2022/09/24 06:55:18;;;;;;;49.27;45.27;;;;;;;13.03;100.00;101220.28;5031183;28;20510;-54
2022/09/24 06:57:46;;;;;;;48.50;44.60;;;;;;;13.16;100.00;101222.22;5031170;28;20494;-55
2022/09/24 07:00:14;;;;;;;49.67;45.77;;;;;;;13.25;100.00;101218.31;5031107;28;20518;-54
2022/09/24 07:02:43;;;;;;;48.57;44.77;;;;;;;13.28;100.00;101218.75;5031470;28;20479;-54
2022/09/24 07:05:11;;;;;;;49.07;45.07;;;;;;;13.35;100.00;101217.94;5033989;28;20490;-51
2022/09/24 07:07:40;;;;;;;47.50;43.70;;;;;;;13.44;100.00;101216.72;5034848;28;20459;-51
2022/09/24 07:10:09;;;;;;;50.93;47.00;;;;;;;13.53;100.00;101213.63;5034594;28;20435;-53
2022/09/24 07:12:37;;;;;;;44.63;41.03;;;;;;;13.61;100.00;101216.13;5034671;28;20446;-50
2022/09/24 07:15:05;;;;;;;48.77;44.63;;;;;;;13.64;100.00;101231.78;5034008;28;20517;-51
2022/09/24 07:17:33;;;;;;;47.07;43.20;;;;;;;13.73;100.00;101230.56;5034316;28;20460;-48
2022/09/24 07:20:02;;;;;;;46.80;43.23;;;;;;;13.87;100.00;101226.03;5033396;28;20435;-50
2022/09/24 07:22:30;;;;;;;47.53;43.83;;;;;;;14.04;100.00;101218.38;5045851;28;20839;-48
2022/09/24 07:24:58;;;;;;;47.53;43.67;;;;;;;14.23;100.00;101218.38;5053863;28;20556;-51
2022/09/24 07:27:25;;;;;;;51.53;47.20;;;;;;;14.29;100.00;101222.91;5054255;28;20520;-48
2022/09/24 07:29:53;;;;;;;48.80;44.83;;;;;;;14.47;100.00;101221.44;5054160;28;20439;-46
2022/09/24 07:32:21;;;;;;;49.07;45.03;;;;;;;14.58;100.00;101221.63;5053981;28;20431;-46
2022/09/24 07:34:56;;;;;;;51.97;48.00;;;;;;;14.67;100.00;101230.25;5053216;28;20466;-46
2022/09/24 07:37:25;;;;;;;51.63;47.77;;;;;;;14.72;100.00;101225.09;5054073;28;20455;-49
2022/09/24 07:39:52;;;;;;;51.23;47.00;;;;;;;14.82;100.00;101223.59;5054078;28;20443;-47
2022/09/24 07:42:20;;;;;;;51.47;47.10;;;;;;;14.93;100.00;101233.66;5053493;28;20478;-46
2022/09/24 07:44:48;;;;;;;50.80;46.67;;;;;;;14.98;100.00;101230.34;5053607;28;20463;-49
2022/09/24 07:47:15;;;;;;;51.77;47.60;;;;;;;15.13;100.00;101227.41;5083634;22;20926;-42
2022/09/24 07:49:43;;;;;;;44.13;40.87;;;;;;;15.28;100.00;101233.31;5042135;28;20871;-41
2022/09/24 07:52:11;;;;;;;47.90;43.90;;;;;;;15.37;100.00;101226.63;5033204;28;20424;-41
2022/09/24 07:54:40;;;;;;;50.07;46.00;;;;;;;15.55;100.00;101236.69;5033751;28;20514;-41
2022/09/24 07:57:11;;;;;;;48.87;44.90;;;;;;;15.60;100.00;101226.94;5033844;28;20452;-41
2022/09/24 07:59:40;;;;;;;54.17;49.73;;;;;;;15.65;100.00;101229.78;5034153;28;20498;-42
2022/09/24 08:02:15;;;;;;;49.63;45.80;;;;;;;15.76;100.00;101222.88;5033692;28;20873;-41
2022/09/24 08:04:43;;;;;;;54.53;50.20;;;;;;;15.97;100.00;101236.78;5033352;28;21011;-42
2022/09/24 08:07:11;;;;;;;51.17;47.07;;;;;;;16.08;100.00;101234.41;5033886;28;20517;-43
2022/09/24 08:09:40;;;;;;;53.57;48.97;;;;;;;16.19;100.00;101236.41;5034044;28;20432;-43
2022/09/24 08:12:11;;;;;;;51.63;47.63;;;;;;;16.33;100.00;101237.91;5033609;28;20766;-42
2022/09/24 08:14:38;;;;;;;49.20;45.30;;;;;;;16.46;100.00;101240.44;5032320;28;20518;-45
2022/09/24 08:17:06;;;;;;;54.13;49.73;;;;;;;16.44;96.03;101232.63;5033688;28;20472;-41
2022/09/24 08:19:33;;;;;;;46.83;43.33;;;;;;;16.45;94.22;101239.66;5026099;28;20495;-42
2022/09/24 08:22:04;;;;;;;47.80;43.97;;;;;;;16.49;92.43;101232.75;5025053;28;20849;-45
2022/09/24 08:24:31;;;;;;;50.77;46.67;;;;;;;16.50;90.92;101234.41;5033149;28;20472;-41
2022/09/24 08:27:00;;;;;;;47.00;43.27;;;;;;;16.67;90.77;101237.34;5033294;28;20506;-43
2022/09/24 08:29:28;;;;;;;49.97;45.87;;;;;;;16.74;88.85;101246.19;5033660;28;20801;-43
2022/09/24 08:31:55;;;;;;;49.07;45.07;;;;;;;16.79;87.39;101245.50;5033310;28;20960;-41
2022/09/24 08:34:23;;;;;;;48.97;44.87;;;;;;;16.82;88.59;101237.81;5032291;28;20464;-41
2022/09/24 08:36:51;;;;;;;53.57;48.97;;;;;;;16.72;87.88;101244.78;5033372;28;20514;-42
2022/09/24 08:39:19;;;;;;;48.63;44.73;;;;;;;16.75;87.54;101247.03;5033302;28;20432;-41
2022/09/24 08:41:55;;;;;;;45.43;41.73;;;;;;;16.79;87.40;101240.94;5033077;28;20435;-42
2022/09/24 08:47:25;;;;;;;49.00;45.10;;;;;;;16.84;87.26;101242.97;5032574;28;20471;-42
2022/09/24 08:50:01;;;;;;;47.33;43.47;;;;;;;16.90;88.91;101242.06;5033102;28;20440;-43
2022/09/24 08:52:41;;;;;;;46.20;42.13;;;;;;;16.89;87.48;101246.63;5032673;28;20482;-41
2022/09/24 08:55:14;;;;;;;48.20;44.20;;;;;;;16.92;88.82;101251.56;5032404;28;20448;-41
2022/09/24 08:57:58;;;;;;;47.17;43.00;;;;;;;16.85;87.11;101240.03;5033132;28;20510;-41
2022/09/24 09:00:29;;;;;;;42.30;38.80;;;;;;;16.78;87.73;101249.25;5032689;28;20501;-44
2022/09/24 09:03:06;;;;;;;41.83;38.27;;;;;;;16.66;87.97;101246.50;5031766;28;20476;-42
2022/09/24 09:05:49;;;;;;;41.87;38.40;;;;;;;16.67;90.25;101250.81;5032553;28;20432;-42
2022/09/24 09:08:28;;;;;;;41.17;37.60;;;;;;;16.65;90.80;101255.63;5032920;28;20436;-42
2022/09/24 09:11:20;;;;;;;42.83;38.93;;;;;;;16.55;88.99;101245.34;5032743;28;20486;-41
2022/09/24 09:13:53;;;;;;;44.33;40.13;;;;;;;16.60;91.15;101252.78;5031777;28;20463;-42
2022/09/24 09:16:26;;;;;;;45.37;40.90;;;;;;;16.56;91.16;101247.00;5032308;28;20460;-41
2022/09/24 09:18:58;;;;;;;39.20;35.63;;;;;;;16.55;91.17;101247.22;5029901;28;20448;-40
2022/09/24 09:21:31;;;;;;;45.40;41.27;;;;;;;16.59;91.99;101251.13;5021731;28;20421;-43
2022/09/24 09:24:01;;;;;;;42.17;38.50;;;;;;;16.53;90.36;101251.97;5031740;28;20472;-42
2022/09/24 09:26:29;;;;;;;40.80;36.93;;;;;;;16.63;90.76;101246.13;5031934;28;20452;-43
2022/09/24 09:28:59;;;;;;;42.43;38.27;;;;;;;16.70;89.40;101253.06;5032460;28;20483;-41
2022/09/24 09:31:42;;;;;;;41.70;37.43;;;;;;;16.79;90.22;101246.34;5032005;28;20519;-41
2022/09/24 09:34:29;;;;;;;39.30;35.23;;;;;;;16.86;90.04;101247.09;5031660;28;20814;-41
2022/09/24 09:37:07;;;;;;;43.10;39.20;;;;;;;17.10;89.83;101251.56;5031966;28;20448;-42
2022/09/24 09:39:44;;;;;;;45.63;40.97;;;;;;;17.20;87.50;101253.72;5032376;28;20501;-41
2022/09/24 09:42:30;;;;;;;42.37;37.87;;;;;;;17.29;85.65;101256.91;5032307;28;20427;-42
2022/09/24 09:45:01;;;;;;;42.23;38.10;;;;;;;17.24;84.40;101259.44;5031734;28;20506;-42
2022/09/24 09:47:41;;;;;;;36.97;33.30;;;;;;;17.20;84.18;101252.88;5031609;28;20482;-42
2022/09/24 09:50:19;;;;;;;39.13;35.10;;;;;;;17.33;85.27;101255.38;5032255;28;20443;-41
2022/09/24 09:52:47;;;;;;;37.00;33.07;;;;;;;17.38;84.33;101256.34;5031228;28;20427;-41
2022/09/24 09:55:23;;;;;;;38.90;35.10;;;;;;;17.44;84.00;101260.03;5031806;28;20497;-41
2022/09/24 09:57:52;;;;;;;38.40;34.50;;;;;;;17.41;83.29;101263.19;5031759;28;20462;-41
2022/09/24 10:00:28;;;;;;;39.13;35.10;;;;;;;17.29;84.04;101259.63;5031363;28;20991;-41
2022/09/24 10:02:57;;;;;;;39.03;35.20;;;;;;;17.24;84.27;101268.38;5031125;28;20875;-44
2022/09/24 10:05:27;;;;;;;35.97;32.20;;;;;;;17.24;84.80;101267.53;5032265;28;20443;-46
2022/09/24 10:07:56;;;;;;;38.10;34.43;;;;;;;17.18;84.59;101255.78;5032623;28;20459;-46
2022/09/24 10:10:25;;;;;;;35.07;31.63;;;;;;;17.12;85.08;101257.53;5032117;28;20497;-44
2022/09/24 10:12:55;;;;;;;37.07;33.40;;;;;;;17.17;86.47;101257.66;5031388;28;20474;-42
2022/09/24 10:15:24;;;;;;;33.90;30.60;;;;;;;17.14;86.06;101257.31;5031356;28;20436;-44
2022/09/24 10:17:54;;;;;;;33.40;29.90;;;;;;;17.12;86.21;101252.16;5031699;28;20456;-41
2022/09/24 10:20:26;;;;;;;32.97;29.70;;;;;;;17.10;86.23;101253.44;5025006;28;20987;-44
2022/09/24 10:22:57;;;;;;;33.40;30.20;;;;;;;17.01;86.01;101260.16;5023688;28;20479;-44
2022/09/24 10:25:28;;;;;;;36.33;32.77;;;;;;;17.00;87.04;101248.56;5031784;28;20845;-43
2022/09/24 10:30:32;;;;;;;32.47;29.20;;;;;;;16.98;86.89;101253.38;5031476;28;20447;-42
2022/09/24 10:30:50;;;;;;;33.97;30.47;;;;;;;17.00;87.45;101261.22;5031000;28;20841;-45
2022/09/24 10:33:18;;;;;;;36.53;32.13;;;;;;;16.93;86.88;101253.22;5030769;28;21011;-43
2022/09/24 10:35:47;;;;;;;31.70;28.70;;;;;;;16.97;87.50;101259.78;5031342;28;20929;-42
2022/09/24 10:38:17;;;;;;;29.03;26.23;;;;;;;16.94;86.26;101254.03;5033370;28;20440;-42
2022/09/24 10:40:45;;;;;;;33.80;26.97;;;;;;;16.84;85.52;101251.88;5035805;28;20477;-43
2022/09/24 10:43:19;;;;;;;27.43;24.50;;;;;;;16.94;85.19;101249.47;5034276;28;20463;-44
2022/09/24 10:46:06;;;;;;;24.73;21.80;;;;;;;16.96;84.27;101252.78;5035033;28;20482;-41
2022/09/24 10:48:42;;;;;;;22.93;20.67;;;;;;;17.01;82.56;101260.16;5035478;28;20967;-42
2022/09/24 10:51:23;;;;;;;21.83;19.60;;;;;;;17.06;82.54;101254.91;5035262;28;20427;-46
2022/09/24 10:54:09;;;;;;;22.27;20.03;;;;;;;17.14;82.53;101251.94;5034533;28;20550;-42
2022/09/24 10:56:39;;;;;;;22.87;20.77;;;;;;;17.22;82.32;101251.59;5035323;28;20498;-41
2022/09/24 10:59:28;;;;;;;27.10;24.40;;;;;;;17.22;80.72;101256.16;5035053;28;20427;-42
2022/09/24 11:02:14;;;;;;;24.43;22.00;;;;;;;16.95;81.93;101250.28;5035241;28;20423;-42
2022/09/24 11:04:50;;;;;;;22.80;20.60;;;;;;;17.13;84.22;101250.28;5034474;28;20466;-43
2022/09/24 11:07:42;;;;;;;25.67;22.63;;;;;;;17.26;84.56;101243.91;5034978;28;20864;-42
2022/09/24 11:10:27;;;;;;;24.50;21.90;;;;;;;17.34;83.85;101248.97;5034790;28;20415;-43
2022/09/24 11:13:10;;;;;;;25.77;23.27;;;;;;;17.39;83.06;101249.09;5033738;28;20432;-42
2022/09/24 11:16:25;;;;;;;26.87;24.07;;;;;;;17.38;82.75;101253.66;5035007;28;20576;-43
2022/09/24 11:18:57;;;;;;;26.23;23.67;;;;;;;17.28;81.71;101242.63;5012305;28;20440;-42
2022/09/24 11:21:56;;;;;;;24.60;22.10;;;;;;;17.34;82.70;101244.41;5023747;28;20768;-42
2022/09/24 11:24:46;;;;;;;25.67;22.10;;;;;;;17.40;81.25;101243.47;5033572;28;21062;-43
2022/09/24 11:27:37;;;;;;;24.00;21.47;;;;;;;17.32;82.03;101251.06;5031337;28;20525;-44
2022/09/24 11:30:10;;;;;;;27.60;22.90;;;;;;;17.27;83.41;101240.97;5025736;28;20854;-42
2022/09/24 11:32:50;;;;;;;23.73;21.60;;;;;;;17.46;85.50;101249.81;5030277;28;20463;-41
2022/09/24 11:35:35;;;;;;;24.03;21.97;;;;;;;17.42;83.77;101246.75;5021698;28;20491;-41